sensor_id;sensor_type;location;lat;lon;timestamp;P1;durP1;ratioP1;P2;durP2;ratioP2
66546;SDS011;53400;50.364;14.874;2023-07-30T00:01:23;6.03;;;2.60;;
66546;SDS011;53400;50.364;14.874;2023-07-30T00:03:51;5.30;;;2.40;;
66546;SDS011;53400;50.364;14.874;2023-07-30T00:06:18;5.32;;;2.53;;
66546;SDS011;53400;50.364;14.874;2023-07-30T00:08:44;8.55;;;2.70;;
66546;SDS011;53400;50.364;14.874;2023-07-30T00:11:10;6.72;;;2.50;;
66546;SDS011;53400;50.364;14.874;2023-07-30T00:13:36;6.13;;;2.80;;
66546;SDS011;53400;50.364;14.874;2023-07-30T00:16:03;6.63;;;2.90;;
66546;SDS011;53400;50.364;14.874;2023-07-30T00:18:30;5.47;;;2.55;;
66546;SDS011;53400;50.364;14.874;2023-07-30T00:20:57;5.07;;;2.20;;
66546;SDS011;53400;50.364;14.874;2023-07-30T00:23:24;4.40;;;2.35;;
66546;SDS011;53400;50.364;14.874;2023-07-30T00:25:50;8.35;;;2.65;;
66546;SDS011;53400;50.364;14.874;2023-07-30T00:28:16;4.40;;;2.20;;
66546;SDS011;53400;50.364;14.874;2023-07-30T00:30:43;5.05;;;2.60;;
66546;SDS011;53400;50.364;14.874;2023-07-30T00:33:10;8.85;;;2.80;;
66546;SDS011;53400;50.364;14.874;2023-07-30T00:35:36;5.93;;;2.67;;
66546;SDS011;53400;50.364;14.874;2023-07-30T00:38:04;5.82;;;2.15;;
66546;SDS011;53400;50.364;14.874;2023-07-30T00:40:30;4.50;;;1.95;;
66546;SDS011;53400;50.364;14.874;2023-07-30T00:42:57;4.20;;;1.98;;
66546;SDS011;53400;50.364;14.874;2023-07-30T00:45:23;4.55;;;1.98;;
66546;SDS011;53400;50.364;14.874;2023-07-30T00:47:49;6.53;;;2.15;;
66546;SDS011;53400;50.364;14.874;2023-07-30T00:50:16;8.73;;;2.30;;
66546;SDS011;53400;50.364;14.874;2023-07-30T00:52:43;5.13;;;2.60;;
66546;SDS011;53400;50.364;14.874;2023-07-30T00:55:11;6.40;;;2.40;;
66546;SDS011;53400;50.364;14.874;2023-07-30T00:57:37;7.07;;;2.60;;
66546;SDS011;53400;50.364;14.874;2023-07-30T01:00:05;6.38;;;2.80;;
66546;SDS011;53400;50.364;14.874;2023-07-30T01:02:34;9.48;;;3.65;;
66546;SDS011;53400;50.364;14.874;2023-07-30T01:05:02;9.20;;;4.78;;
66546;SDS011;53400;50.364;14.874;2023-07-30T01:07:29;12.20;;;6.15;;
66546;SDS011;53400;50.364;14.874;2023-07-30T01:09:55;13.88;;;6.93;;
66546;SDS011;53400;50.364;14.874;2023-07-30T01:12:23;13.23;;;7.93;;
66546;SDS011;53400;50.364;14.874;2023-07-30T01:14:51;12.77;;;7.05;;
66546;SDS011;53400;50.364;14.874;2023-07-30T01:17:19;97.30;;;10.63;;
66546;SDS011;53400;50.364;14.874;2023-07-30T01:19:47;112.78;;;11.23;;
66546;SDS011;53400;50.364;14.874;2023-07-30T01:22:16;150.63;;;11.32;;
66546;SDS011;53400;50.364;14.874;2023-07-30T01:24:43;117.30;;;11.60;;
66546;SDS011;53400;50.364;14.874;2023-07-30T01:27:11;87.68;;;8.43;;
66546;SDS011;53400;50.364;14.874;2023-07-30T01:29:43;36.47;;;5.63;;
66546;SDS011;53400;50.364;14.874;2023-07-30T01:32:16;65.03;;;6.82;;
66546;SDS011;53400;50.364;14.874;2023-07-30T01:34:45;69.03;;;8.20;;
66546;SDS011;53400;50.364;14.874;2023-07-30T01:37:18;25.75;;;5.97;;
66546;SDS011;53400;50.364;14.874;2023-07-30T01:39:44;9.95;;;5.03;;
66546;SDS011;53400;50.364;14.874;2023-07-30T01:42:13;11.57;;;5.13;;
66546;SDS011;53400;50.364;14.874;2023-07-30T01:44:40;8.52;;;5.25;;
66546;SDS011;53400;50.364;14.874;2023-07-30T01:47:06;9.07;;;4.53;;
66546;SDS011;53400;50.364;14.874;2023-07-30T01:49:33;6.85;;;4.35;;
66546;SDS011;53400;50.364;14.874;2023-07-30T01:51:59;9.18;;;4.45;;
66546;SDS011;53400;50.364;14.874;2023-07-30T01:54:26;9.35;;;4.40;;
66546;SDS011;53400;50.364;14.874;2023-07-30T01:56:53;8.60;;;3.97;;
66546;SDS011;53400;50.364;14.874;2023-07-30T01:59:20;7.63;;;3.95;;
66546;SDS011;53400;50.364;14.874;2023-07-30T02:01:46;9.25;;;4.15;;
66546;SDS011;53400;50.364;14.874;2023-07-30T02:04:12;7.97;;;4.07;;
66546;SDS011;53400;50.364;14.874;2023-07-30T02:06:38;8.02;;;3.72;;
66546;SDS011;53400;50.364;14.874;2023-07-30T02:09:04;9.10;;;4.32;;
66546;SDS011;53400;50.364;14.874;2023-07-30T02:11:32;8.45;;;4.38;;
66546;SDS011;53400;50.364;14.874;2023-07-30T02:13:59;8.65;;;3.90;;
66546;SDS011;53400;50.364;14.874;2023-07-30T02:16:25;10.18;;;4.53;;
66546;SDS011;53400;50.364;14.874;2023-07-30T02:18:52;9.48;;;5.07;;
66546;SDS011;53400;50.364;14.874;2023-07-30T02:21:18;12.80;;;4.60;;
66546;SDS011;53400;50.364;14.874;2023-07-30T02:23:45;8.57;;;4.30;;
66546;SDS011;53400;50.364;14.874;2023-07-30T02:26:11;10.20;;;4.28;;
66546;SDS011;53400;50.364;14.874;2023-07-30T02:28:38;11.55;;;4.57;;
66546;SDS011;53400;50.364;14.874;2023-07-30T02:31:05;8.90;;;4.00;;
66546;SDS011;53400;50.364;14.874;2023-07-30T02:33:31;7.95;;;3.85;;
66546;SDS011;53400;50.364;14.874;2023-07-30T02:35:58;9.35;;;4.00;;
66546;SDS011;53400;50.364;14.874;2023-07-30T02:38:25;7.80;;;4.13;;
66546;SDS011;53400;50.364;14.874;2023-07-30T02:40:51;8.57;;;4.32;;
66546;SDS011;53400;50.364;14.874;2023-07-30T02:43:17;7.30;;;3.75;;
66546;SDS011;53400;50.364;14.874;2023-07-30T02:45:44;7.38;;;3.80;;
66546;SDS011;53400;50.364;14.874;2023-07-30T02:48:12;6.00;;;3.35;;
66546;SDS011;53400;50.364;14.874;2023-07-30T02:50:39;7.10;;;3.80;;
66546;SDS011;53400;50.364;14.874;2023-07-30T02:53:06;6.20;;;3.47;;
66546;SDS011;53400;50.364;14.874;2023-07-30T02:55:32;6.47;;;3.50;;
66546;SDS011;53400;50.364;14.874;2023-07-30T02:57:58;6.72;;;3.38;;
66546;SDS011;53400;50.364;14.874;2023-07-30T03:00:24;29.10;;;5.55;;
66546;SDS011;53400;50.364;14.874;2023-07-30T03:02:52;42.28;;;6.63;;
66546;SDS011;53400;50.364;14.874;2023-07-30T03:05:18;17.80;;;5.88;;
66546;SDS011;53400;50.364;14.874;2023-07-30T03:07:45;9.25;;;5.32;;
66546;SDS011;53400;50.364;14.874;2023-07-30T03:10:11;9.13;;;4.95;;
66546;SDS011;53400;50.364;14.874;2023-07-30T03:12:37;12.63;;;5.40;;
66546;SDS011;53400;50.364;14.874;2023-07-30T03:15:04;23.25;;;6.53;;
66546;SDS011;53400;50.364;14.874;2023-07-30T03:17:31;10.23;;;6.03;;
66546;SDS011;53400;50.364;14.874;2023-07-30T03:19:59;8.73;;;5.10;;
66546;SDS011;53400;50.364;14.874;2023-07-30T03:22:25;7.72;;;4.97;;
66546;SDS011;53400;50.364;14.874;2023-07-30T03:24:51;9.95;;;4.93;;
66546;SDS011;53400;50.364;14.874;2023-07-30T03:27:17;8.80;;;4.68;;
66546;SDS011;53400;50.364;14.874;2023-07-30T03:29:44;7.57;;;4.57;;
66546;SDS011;53400;50.364;14.874;2023-07-30T03:32:10;9.13;;;4.90;;
66546;SDS011;53400;50.364;14.874;2023-07-30T03:34:36;13.20;;;5.32;;
66546;SDS011;53400;50.364;14.874;2023-07-30T03:37:04;16.88;;;5.82;;
66546;SDS011;53400;50.364;14.874;2023-07-30T03:39:30;24.58;;;6.07;;
66546;SDS011;53400;50.364;14.874;2023-07-30T03:41:57;28.58;;;5.75;;
66546;SDS011;53400;50.364;14.874;2023-07-30T03:44:23;38.53;;;6.45;;
66546;SDS011;53400;50.364;14.874;2023-07-30T03:46:49;24.30;;;5.65;;
66546;SDS011;53400;50.364;14.874;2023-07-30T03:49:16;23.90;;;6.03;;
66546;SDS011;53400;50.364;14.874;2023-07-30T03:51:42;30.45;;;6.30;;
66546;SDS011;53400;50.364;14.874;2023-07-30T03:54:10;29.80;;;6.47;;
66546;SDS011;53400;50.364;14.874;2023-07-30T03:56:36;16.95;;;6.03;;
66546;SDS011;53400;50.364;14.874;2023-07-30T03:59:02;47.30;;;7.80;;
66546;SDS011;53400;50.364;14.874;2023-07-30T04:01:29;67.13;;;8.85;;
66546;SDS011;53400;50.364;14.874;2023-07-30T04:03:55;47.28;;;7.63;;
66546;SDS011;53400;50.364;14.874;2023-07-30T04:06:22;40.33;;;7.13;;
66546;SDS011;53400;50.364;14.874;2023-07-30T04:08:48;18.27;;;6.03;;
66546;SDS011;53400;50.364;14.874;2023-07-30T04:11:16;11.60;;;6.13;;
66546;SDS011;53400;50.364;14.874;2023-07-30T04:13:42;24.27;;;7.03;;
66546;SDS011;53400;50.364;14.874;2023-07-30T04:16:08;11.85;;;5.72;;
66546;SDS011;53400;50.364;14.874;2023-07-30T04:18:35;18.55;;;5.70;;
66546;SDS011;53400;50.364;14.874;2023-07-30T04:21:01;9.32;;;4.68;;
66546;SDS011;53400;50.364;14.874;2023-07-30T04:23:27;13.85;;;5.10;;
66546;SDS011;53400;50.364;14.874;2023-07-30T04:25:54;19.60;;;5.68;;
66546;SDS011;53400;50.364;14.874;2023-07-30T04:28:22;18.77;;;5.75;;
66546;SDS011;53400;50.364;14.874;2023-07-30T04:30:48;35.97;;;6.25;;
66546;SDS011;53400;50.364;14.874;2023-07-30T04:33:15;23.08;;;5.75;;
66546;SDS011;53400;50.364;14.874;2023-07-30T04:35:41;13.05;;;5.43;;
66546;SDS011;53400;50.364;14.874;2023-07-30T04:38:07;11.82;;;4.75;;
66546;SDS011;53400;50.364;14.874;2023-07-30T04:40:33;21.63;;;5.90;;
66546;SDS011;53400;50.364;14.874;2023-07-30T04:43:00;10.48;;;5.22;;
66546;SDS011;53400;50.364;14.874;2023-07-30T04:45:27;10.75;;;5.47;;
66546;SDS011;53400;50.364;14.874;2023-07-30T04:47:54;19.55;;;5.82;;
66546;SDS011;53400;50.364;14.874;2023-07-30T04:50:20;7.53;;;5.05;;
66546;SDS011;53400;50.364;14.874;2023-07-30T04:52:46;7.63;;;4.45;;
66546;SDS011;53400;50.364;14.874;2023-07-30T04:55:12;9.20;;;5.10;;
66546;SDS011;53400;50.364;14.874;2023-07-30T04:57:39;7.88;;;4.95;;
66546;SDS011;53400;50.364;14.874;2023-07-30T05:00:05;8.30;;;4.68;;
66546;SDS011;53400;50.364;14.874;2023-07-30T05:02:34;7.82;;;4.60;;
66546;SDS011;53400;50.364;14.874;2023-07-30T05:05:00;7.70;;;4.63;;
66546;SDS011;53400;50.364;14.874;2023-07-30T05:07:26;8.10;;;4.47;;
66546;SDS011;53400;50.364;14.874;2023-07-30T05:09:53;6.75;;;4.13;;
66546;SDS011;53400;50.364;14.874;2023-07-30T05:12:19;7.88;;;4.30;;
66546;SDS011;53400;50.364;14.874;2023-07-30T05:14:46;6.53;;;3.38;;
66546;SDS011;53400;50.364;14.874;2023-07-30T05:17:12;6.45;;;3.85;;
66546;SDS011;53400;50.364;14.874;2023-07-30T05:19:39;6.20;;;3.50;;
66546;SDS011;53400;50.364;14.874;2023-07-30T05:22:05;6.55;;;3.20;;
66546;SDS011;53400;50.364;14.874;2023-07-30T05:24:33;5.38;;;3.15;;
66546;SDS011;53400;50.364;14.874;2023-07-30T05:27:02;5.53;;;3.08;;
66546;SDS011;53400;50.364;14.874;2023-07-30T05:29:28;5.50;;;2.85;;
66546;SDS011;53400;50.364;14.874;2023-07-30T05:31:55;6.38;;;3.22;;
66546;SDS011;53400;50.364;14.874;2023-07-30T05:34:21;6.32;;;3.80;;
66546;SDS011;53400;50.364;14.874;2023-07-30T05:36:49;6.13;;;3.40;;
66546;SDS011;53400;50.364;14.874;2023-07-30T05:39:16;7.43;;;3.28;;
66546;SDS011;53400;50.364;14.874;2023-07-30T05:41:42;6.60;;;3.00;;
66546;SDS011;53400;50.364;14.874;2023-07-30T05:44:08;7.97;;;3.60;;
66546;SDS011;53400;50.364;14.874;2023-07-30T05:46:34;7.07;;;3.67;;
66546;SDS011;53400;50.364;14.874;2023-07-30T05:49:00;6.15;;;3.45;;
66546;SDS011;53400;50.364;14.874;2023-07-30T05:51:26;7.03;;;3.85;;
66546;SDS011;53400;50.364;14.874;2023-07-30T05:53:54;6.38;;;4.15;;
66546;SDS011;53400;50.364;14.874;2023-07-30T05:56:20;6.50;;;4.18;;
66546;SDS011;53400;50.364;14.874;2023-07-30T05:58:46;6.10;;;3.80;;
66546;SDS011;53400;50.364;14.874;2023-07-30T06:01:12;7.05;;;4.25;;
66546;SDS011;53400;50.364;14.874;2023-07-30T06:03:38;7.18;;;4.35;;
66546;SDS011;53400;50.364;14.874;2023-07-30T06:06:05;8.18;;;4.35;;
66546;SDS011;53400;50.364;14.874;2023-07-30T06:08:31;7.22;;;4.43;;
66546;SDS011;53400;50.364;14.874;2023-07-30T06:11:01;6.80;;;4.28;;
66546;SDS011;53400;50.364;14.874;2023-07-30T06:13:28;7.35;;;4.45;;
66546;SDS011;53400;50.364;14.874;2023-07-30T06:15:54;6.40;;;4.32;;
66546;SDS011;53400;50.364;14.874;2023-07-30T06:18:21;9.48;;;4.88;;
66546;SDS011;53400;50.364;14.874;2023-07-30T06:20:47;8.63;;;4.80;;
66546;SDS011;53400;50.364;14.874;2023-07-30T06:23:13;9.38;;;4.47;;
66546;SDS011;53400;50.364;14.874;2023-07-30T06:25:40;8.73;;;4.65;;
66546;SDS011;53400;50.364;14.874;2023-07-30T06:28:07;6.55;;;4.47;;
66546;SDS011;53400;50.364;14.874;2023-07-30T06:30:33;6.95;;;4.50;;
66546;SDS011;53400;50.364;14.874;2023-07-30T06:32:59;8.45;;;4.90;;
66546;SDS011;53400;50.364;14.874;2023-07-30T06:35:26;7.50;;;4.65;;
66546;SDS011;53400;50.364;14.874;2023-07-30T06:37:53;7.05;;;4.15;;
66546;SDS011;53400;50.364;14.874;2023-07-30T06:40:19;9.60;;;4.70;;
66546;SDS011;53400;50.364;14.874;2023-07-30T06:42:45;10.15;;;4.97;;
66546;SDS011;53400;50.364;14.874;2023-07-30T06:45:13;9.15;;;5.03;;
66546;SDS011;53400;50.364;14.874;2023-07-30T06:47:39;10.55;;;4.88;;
66546;SDS011;53400;50.364;14.874;2023-07-30T06:50:07;6.47;;;4.10;;
66546;SDS011;53400;50.364;14.874;2023-07-30T06:52:38;8.63;;;4.60;;
66546;SDS011;53400;50.364;14.874;2023-07-30T06:55:05;8.90;;;5.25;;
66546;SDS011;53400;50.364;14.874;2023-07-30T06:57:31;7.72;;;5.00;;
66546;SDS011;53400;50.364;14.874;2023-07-30T06:59:58;7.93;;;4.70;;
66546;SDS011;53400;50.364;14.874;2023-07-30T07:02:25;8.15;;;4.85;;
66546;SDS011;53400;50.364;14.874;2023-07-30T07:04:51;6.68;;;4.07;;
66546;SDS011;53400;50.364;14.874;2023-07-30T07:07:19;9.75;;;5.15;;
66546;SDS011;53400;50.364;14.874;2023-07-30T07:09:46;8.10;;;4.78;;
66546;SDS011;53400;50.364;14.874;2023-07-30T07:12:12;7.88;;;5.35;;
66546;SDS011;53400;50.364;14.874;2023-07-30T07:14:38;7.65;;;4.68;;
66546;SDS011;53400;50.364;14.874;2023-07-30T07:17:05;7.85;;;4.80;;
66546;SDS011;53400;50.364;14.874;2023-07-30T07:19:33;8.20;;;4.50;;
66546;SDS011;53400;50.364;14.874;2023-07-30T07:22:02;7.43;;;4.47;;
66546;SDS011;53400;50.364;14.874;2023-07-30T07:24:29;7.05;;;4.30;;
66546;SDS011;53400;50.364;14.874;2023-07-30T07:26:57;6.65;;;4.00;;
66546;SDS011;53400;50.364;14.874;2023-07-30T07:29:22;7.80;;;4.75;;
66546;SDS011;53400;50.364;14.874;2023-07-30T07:31:50;9.35;;;5.50;;
66546;SDS011;53400;50.364;14.874;2023-07-30T07:34:16;7.88;;;5.95;;
66546;SDS011;53400;50.364;14.874;2023-07-30T07:36:44;9.23;;;5.93;;
66546;SDS011;53400;50.364;14.874;2023-07-30T07:39:10;11.60;;;6.97;;
66546;SDS011;53400;50.364;14.874;2023-07-30T07:41:37;7.88;;;5.72;;
66546;SDS011;53400;50.364;14.874;2023-07-30T07:44:04;10.95;;;6.00;;
66546;SDS011;53400;50.364;14.874;2023-07-30T07:46:30;9.07;;;6.68;;
66546;SDS011;53400;50.364;14.874;2023-07-30T07:48:56;9.90;;;5.75;;
66546;SDS011;53400;50.364;14.874;2023-07-30T07:51:23;9.50;;;6.15;;
66546;SDS011;53400;50.364;14.874;2023-07-30T07:53:50;9.27;;;5.15;;
66546;SDS011;53400;50.364;14.874;2023-07-30T07:56:17;8.57;;;6.30;;
66546;SDS011;53400;50.364;14.874;2023-07-30T07:58:44;10.80;;;7.03;;
66546;SDS011;53400;50.364;14.874;2023-07-30T08:01:10;8.98;;;6.40;;
66546;SDS011;53400;50.364;14.874;2023-07-30T08:03:36;10.27;;;6.57;;
66546;SDS011;53400;50.364;14.874;2023-07-30T08:06:03;8.40;;;6.45;;
66546;SDS011;53400;50.364;14.874;2023-07-30T08:08:29;8.15;;;4.68;;
66546;SDS011;53400;50.364;14.874;2023-07-30T08:10:57;9.13;;;6.55;;
66546;SDS011;53400;50.364;14.874;2023-07-30T08:13:23;9.23;;;6.60;;
66546;SDS011;53400;50.364;14.874;2023-07-30T08:15:49;10.98;;;6.78;;
66546;SDS011;53400;50.364;14.874;2023-07-30T08:18:15;14.25;;;7.65;;
66546;SDS011;53400;50.364;14.874;2023-07-30T08:20:43;13.50;;;7.65;;
66546;SDS011;53400;50.364;14.874;2023-07-30T08:23:14;10.93;;;7.40;;
66546;SDS011;53400;50.364;14.874;2023-07-30T08:25:40;11.65;;;7.65;;
66546;SDS011;53400;50.364;14.874;2023-07-30T08:28:08;10.40;;;6.80;;
66546;SDS011;53400;50.364;14.874;2023-07-30T08:30:34;10.50;;;7.22;;
66546;SDS011;53400;50.364;14.874;2023-07-30T08:33:00;11.23;;;7.40;;
66546;SDS011;53400;50.364;14.874;2023-07-30T08:35:28;11.02;;;7.35;;
66546;SDS011;53400;50.364;14.874;2023-07-30T08:37:54;8.75;;;6.10;;
66546;SDS011;53400;50.364;14.874;2023-07-30T08:40:21;11.27;;;7.13;;
66546;SDS011;53400;50.364;14.874;2023-07-30T08:42:48;10.57;;;7.10;;
66546;SDS011;53400;50.364;14.874;2023-07-30T08:45:17;8.90;;;6.18;;
66546;SDS011;53400;50.364;14.874;2023-07-30T08:47:44;9.68;;;6.75;;
66546;SDS011;53400;50.364;14.874;2023-07-30T08:50:10;9.70;;;7.22;;
66546;SDS011;53400;50.364;14.874;2023-07-30T08:52:37;11.27;;;8.38;;
66546;SDS011;53400;50.364;14.874;2023-07-30T08:55:03;9.63;;;6.72;;
66546;SDS011;53400;50.364;14.874;2023-07-30T08:57:30;10.80;;;5.75;;
66546;SDS011;53400;50.364;14.874;2023-07-30T09:00:00;10.50;;;7.20;;
66546;SDS011;53400;50.364;14.874;2023-07-30T09:02:33;10.07;;;6.55;;
66546;SDS011;53400;50.364;14.874;2023-07-30T09:05:04;9.02;;;5.70;;
66546;SDS011;53400;50.364;14.874;2023-07-30T09:07:31;8.02;;;5.60;;
66546;SDS011;53400;50.364;14.874;2023-07-30T09:09:57;10.57;;;6.70;;
66546;SDS011;53400;50.364;14.874;2023-07-30T09:12:25;9.13;;;6.60;;
66546;SDS011;53400;50.364;14.874;2023-07-30T09:14:52;10.23;;;6.90;;
66546;SDS011;53400;50.364;14.874;2023-07-30T09:34:52;5.35;;;2.70;;
66546;SDS011;53400;50.364;14.874;2023-07-30T09:37:18;5.38;;;3.00;;
66546;SDS011;53400;50.364;14.874;2023-07-30T09:39:44;5.88;;;2.25;;
66546;SDS011;53400;50.364;14.874;2023-07-30T09:42:13;4.70;;;2.20;;
66546;SDS011;53400;50.364;14.874;2023-07-30T09:44:39;5.43;;;2.15;;
66546;SDS011;53400;50.364;14.874;2023-07-30T09:47:08;6.53;;;2.40;;
66546;SDS011;53400;50.364;14.874;2023-07-30T09:49:35;4.75;;;2.35;;
66546;SDS011;53400;50.364;14.874;2023-07-30T09:52:03;6.70;;;1.92;;
66546;SDS011;53400;50.364;14.874;2023-07-30T09:54:33;4.38;;;2.08;;
66546;SDS011;53400;50.364;14.874;2023-07-30T09:57:02;5.13;;;2.10;;
66546;SDS011;53400;50.364;14.874;2023-07-30T09:59:29;5.40;;;2.45;;
66546;SDS011;53400;50.364;14.874;2023-07-30T10:01:55;6.43;;;2.70;;
66546;SDS011;53400;50.364;14.874;2023-07-30T10:04:23;5.97;;;2.80;;
66546;SDS011;53400;50.364;14.874;2023-07-30T10:06:53;5.35;;;2.90;;
66546;SDS011;53400;50.364;14.874;2023-07-30T10:09:25;6.93;;;3.30;;
66546;SDS011;53400;50.364;14.874;2023-07-30T10:11:55;6.05;;;3.42;;
66546;SDS011;53400;50.364;14.874;2023-07-30T10:14:22;6.95;;;3.95;;
66546;SDS011;53400;50.364;14.874;2023-07-30T10:16:51;7.60;;;4.63;;
66546;SDS011;53400;50.364;14.874;2023-07-30T10:19:21;9.15;;;4.68;;
66546;SDS011;53400;50.364;14.874;2023-07-30T10:21:48;8.43;;;4.90;;
66546;SDS011;53400;50.364;14.874;2023-07-30T10:24:14;7.57;;;4.90;;
66546;SDS011;53400;50.364;14.874;2023-07-30T10:26:42;8.35;;;5.75;;
66546;SDS011;53400;50.364;14.874;2023-07-30T10:29:11;8.85;;;5.57;;
66546;SDS011;53400;50.364;14.874;2023-07-30T10:31:38;9.77;;;7.75;;
66546;SDS011;53400;50.364;14.874;2023-07-30T10:34:06;9.15;;;6.75;;
66546;SDS011;53400;50.364;14.874;2023-07-30T10:36:36;9.43;;;6.15;;
66546;SDS011;53400;50.364;14.874;2023-07-30T10:39:13;9.32;;;6.93;;
66546;SDS011;53400;50.364;14.874;2023-07-30T10:41:43;9.30;;;6.55;;
66546;SDS011;53400;50.364;14.874;2023-07-30T10:46:58;9.18;;;7.15;;
66546;SDS011;53400;50.364;14.874;2023-07-30T10:49:25;9.27;;;7.18;;
66546;SDS011;53400;50.364;14.874;2023-07-30T10:51:51;9.20;;;6.75;;
66546;SDS011;53400;50.364;14.874;2023-07-30T10:54:18;11.07;;;9.13;;
66546;SDS011;53400;50.364;14.874;2023-07-30T10:56:46;9.27;;;8.27;;
66546;SDS011;53400;50.364;14.874;2023-07-30T10:59:12;11.10;;;7.90;;
66546;SDS011;53400;50.364;14.874;2023-07-30T11:01:40;10.93;;;7.40;;
66546;SDS011;53400;50.364;14.874;2023-07-30T11:04:08;9.90;;;7.35;;
66546;SDS011;53400;50.364;14.874;2023-07-30T11:06:35;8.77;;;6.78;;
66546;SDS011;53400;50.364;14.874;2023-07-30T11:09:01;7.78;;;6.85;;
66546;SDS011;53400;50.364;14.874;2023-07-30T11:11:27;10.50;;;7.28;;
66546;SDS011;53400;50.364;14.874;2023-07-30T11:13:55;9.45;;;7.05;;
66546;SDS011;53400;50.364;14.874;2023-07-30T11:16:23;9.60;;;7.10;;
66546;SDS011;53400;50.364;14.874;2023-07-30T11:18:49;9.70;;;6.90;;
66546;SDS011;53400;50.364;14.874;2023-07-30T11:21:16;7.80;;;7.00;;
66546;SDS011;53400;50.364;14.874;2023-07-30T11:23:44;8.98;;;7.15;;
66546;SDS011;53400;50.364;14.874;2023-07-30T11:26:13;10.00;;;7.13;;
66546;SDS011;53400;50.364;14.874;2023-07-30T11:28:40;9.10;;;7.47;;
66546;SDS011;53400;50.364;14.874;2023-07-30T11:31:08;8.85;;;7.55;;
66546;SDS011;53400;50.364;14.874;2023-07-30T11:33:35;10.02;;;8.23;;
66546;SDS011;53400;50.364;14.874;2023-07-30T11:36:02;8.20;;;7.40;;
66546;SDS011;53400;50.364;14.874;2023-07-30T11:38:28;9.48;;;7.03;;
66546;SDS011;53400;50.364;14.874;2023-07-30T11:40:58;9.98;;;7.70;;
66546;SDS011;53400;50.364;14.874;2023-07-30T11:43:25;8.57;;;7.68;;
66546;SDS011;53400;50.364;14.874;2023-07-30T11:46:05;9.85;;;8.38;;
66546;SDS011;53400;50.364;14.874;2023-07-30T11:48:33;8.25;;;6.97;;
66546;SDS011;53400;50.364;14.874;2023-07-30T11:51:01;7.78;;;6.97;;
66546;SDS011;53400;50.364;14.874;2023-07-30T11:56:16;6.65;;;5.60;;
66546;SDS011;53400;50.364;14.874;2023-07-30T11:58:44;8.65;;;6.32;;
66546;SDS011;53400;50.364;14.874;2023-07-30T12:01:12;7.38;;;6.57;;
66546;SDS011;53400;50.364;14.874;2023-07-30T12:03:38;7.20;;;6.18;;
66546;SDS011;53400;50.364;14.874;2023-07-30T12:06:06;8.63;;;6.28;;
66546;SDS011;53400;50.364;14.874;2023-07-30T12:08:33;6.65;;;5.88;;
66546;SDS011;53400;50.364;14.874;2023-07-30T12:11:02;6.28;;;5.32;;
66546;SDS011;53400;50.364;14.874;2023-07-30T12:13:28;7.40;;;5.85;;
66546;SDS011;53400;50.364;14.874;2023-07-30T12:15:55;8.43;;;5.45;;
66546;SDS011;53400;50.364;14.874;2023-07-30T12:18:23;6.25;;;5.20;;
66546;SDS011;53400;50.364;14.874;2023-07-30T12:20:51;6.15;;;4.85;;
66546;SDS011;53400;50.364;14.874;2023-07-30T12:23:18;8.10;;;4.68;;
66546;SDS011;53400;50.364;14.874;2023-07-30T12:25:45;6.15;;;4.40;;
66546;SDS011;53400;50.364;14.874;2023-07-30T12:28:12;5.78;;;4.20;;
66546;SDS011;53400;50.364;14.874;2023-07-30T12:30:38;6.53;;;2.95;;
66546;SDS011;53400;50.364;14.874;2023-07-30T12:33:04;4.75;;;3.03;;
66546;SDS011;53400;50.364;14.874;2023-07-30T12:35:32;6.18;;;3.17;;
66546;SDS011;53400;50.364;14.874;2023-07-30T12:37:58;5.10;;;2.58;;
66546;SDS011;53400;50.364;14.874;2023-07-30T12:40:25;5.95;;;3.00;;
66546;SDS011;53400;50.364;14.874;2023-07-30T12:42:52;5.85;;;2.85;;
66546;SDS011;53400;50.364;14.874;2023-07-30T12:45:18;5.63;;;2.80;;
66546;SDS011;53400;50.364;14.874;2023-07-30T12:47:44;4.80;;;2.58;;
66546;SDS011;53400;50.364;14.874;2023-07-30T12:50:11;6.20;;;3.10;;
66546;SDS011;53400;50.364;14.874;2023-07-30T12:52:38;5.07;;;2.55;;
66546;SDS011;53400;50.364;14.874;2023-07-30T12:55:04;4.60;;;2.75;;
66546;SDS011;53400;50.364;14.874;2023-07-30T12:57:31;4.90;;;2.70;;
66546;SDS011;53400;50.364;14.874;2023-07-30T12:59:57;4.95;;;2.70;;
66546;SDS011;53400;50.364;14.874;2023-07-30T13:02:23;5.35;;;2.90;;
66546;SDS011;53400;50.364;14.874;2023-07-30T13:04:49;6.20;;;3.00;;
66546;SDS011;53400;50.364;14.874;2023-07-30T13:07:15;5.47;;;2.70;;
66546;SDS011;53400;50.364;14.874;2023-07-30T13:09:43;4.68;;;2.65;;
66546;SDS011;53400;50.364;14.874;2023-07-30T13:12:08;5.25;;;3.00;;
66546;SDS011;53400;50.364;14.874;2023-07-30T13:14:35;5.50;;;2.83;;
66546;SDS011;53400;50.364;14.874;2023-07-30T13:17:01;5.10;;;3.17;;
66546;SDS011;53400;50.364;14.874;2023-07-30T13:19:27;6.20;;;2.95;;
66546;SDS011;53400;50.364;14.874;2023-07-30T13:21:55;5.22;;;3.13;;
66546;SDS011;53400;50.364;14.874;2023-07-30T13:24:21;4.88;;;3.00;;
66546;SDS011;53400;50.364;14.874;2023-07-30T13:26:48;4.80;;;2.90;;
66546;SDS011;53400;50.364;14.874;2023-07-30T13:29:14;5.68;;;2.92;;
66546;SDS011;53400;50.364;14.874;2023-07-30T13:31:40;5.57;;;3.10;;
66546;SDS011;53400;50.364;14.874;2023-07-30T13:34:06;5.80;;;3.13;;
66546;SDS011;53400;50.364;14.874;2023-07-30T13:36:33;4.65;;;2.63;;
66546;SDS011;53400;50.364;14.874;2023-07-30T13:38:59;5.63;;;3.05;;
66546;SDS011;53400;50.364;14.874;2023-07-30T13:41:25;4.82;;;3.03;;
66546;SDS011;53400;50.364;14.874;2023-07-30T13:43:53;5.45;;;3.10;;
66546;SDS011;53400;50.364;14.874;2023-07-30T13:46:18;5.15;;;3.17;;
66546;SDS011;53400;50.364;14.874;2023-07-30T13:48:45;5.50;;;2.78;;
66546;SDS011;53400;50.364;14.874;2023-07-30T13:51:10;4.32;;;2.50;;
66546;SDS011;53400;50.364;14.874;2023-07-30T13:53:36;4.68;;;2.30;;
66546;SDS011;53400;50.364;14.874;2023-07-30T13:56:06;4.40;;;2.40;;
66546;SDS011;53400;50.364;14.874;2023-07-30T13:58:32;4.60;;;2.50;;
66546;SDS011;53400;50.364;14.874;2023-07-30T14:01:00;4.75;;;2.70;;
66546;SDS011;53400;50.364;14.874;2023-07-30T14:03:26;5.47;;;2.83;;
66546;SDS011;53400;50.364;14.874;2023-07-30T14:05:51;5.28;;;2.50;;
66546;SDS011;53400;50.364;14.874;2023-07-30T14:08:18;4.55;;;2.38;;
66546;SDS011;53400;50.364;14.874;2023-07-30T14:10:43;5.13;;;2.60;;
66546;SDS011;53400;50.364;14.874;2023-07-30T14:13:09;4.75;;;2.90;;
66546;SDS011;53400;50.364;14.874;2023-07-30T14:15:35;5.40;;;2.88;;
66546;SDS011;53400;50.364;14.874;2023-07-30T14:18:03;6.38;;;2.97;;
66546;SDS011;53400;50.364;14.874;2023-07-30T14:20:29;6.30;;;3.35;;
66546;SDS011;53400;50.364;14.874;2023-07-30T14:22:55;4.60;;;3.03;;
66546;SDS011;53400;50.364;14.874;2023-07-30T14:25:21;5.00;;;2.60;;
66546;SDS011;53400;50.364;14.874;2023-07-30T14:27:48;4.47;;;2.47;;
66546;SDS011;53400;50.364;14.874;2023-07-30T14:30:16;4.53;;;2.03;;
66546;SDS011;53400;50.364;14.874;2023-07-30T14:32:42;4.03;;;1.75;;
66546;SDS011;53400;50.364;14.874;2023-07-30T14:35:09;4.05;;;1.60;;
66546;SDS011;53400;50.364;14.874;2023-07-30T14:37:36;3.40;;;1.52;;
66546;SDS011;53400;50.364;14.874;2023-07-30T14:40:02;3.20;;;1.30;;
66546;SDS011;53400;50.364;14.874;2023-07-30T14:42:31;2.95;;;1.40;;
66546;SDS011;53400;50.364;14.874;2023-07-30T14:44:59;3.70;;;1.50;;
66546;SDS011;53400;50.364;14.874;2023-07-30T14:47:25;2.83;;;1.33;;
66546;SDS011;53400;50.364;14.874;2023-07-30T14:49:52;3.35;;;1.60;;
66546;SDS011;53400;50.364;14.874;2023-07-30T14:52:19;3.75;;;1.70;;